Time;durP1;ratioP1;P1;durP2;ratioP2;P2;SDS_P1;SDS_P2;PMS_P1;PMS_P2;Temp;Humidity;BMP_temperature;BMP_pressure;BME280_temperature;BME280_humidity;BME280_pressure;Samples;Min_cycle;Max_cycle;Signal;HPM_P1;HPM_P2
2021/12/13 00:02:24;;;;;;;29.88;21.10;;;;;;;;;;4986890;28;99622;-70
2021/12/13 00:04:59;;;;;;;31.13;20.13;;;;;;;;;;5007458;28;98570;-70
2021/12/13 00:07:28;;;;;;;29.75;21.10;;;;;;;;;;5005123;28;99513;-70
2021/12/13 00:09:56;;;;;;;26.92;19.27;;;;;;;;;;5008100;28;99635;-71
2021/12/13 00:12:25;;;;;;;32.08;18.42;;;;;;;;;;5006999;27;99297;-70
2021/12/13 00:14:53;;;;;;;31.15;18.23;;;;;;;;;;5008031;28;99300;-70
2021/12/13 00:17:23;;;;;;;22.50;14.73;;;;;;;;;;5006893;28;100233;-70
2021/12/13 00:19:51;;;;;;;31.35;15.27;;;;;;;;;;4996500;28;99304;-70
2021/12/13 00:22:20;;;;;;;24.23;14.43;;;;;;;;;;5006180;28;100759;-70
2021/12/13 00:24:48;;;;;;;28.98;15.48;;;;;;;;;;5007922;28;99093;-70
2021/12/13 00:27:19;;;;;;;19.77;12.43;;;;;;;;;;5006828;28;99072;-72
2021/12/13 00:29:54;;;;;;;22.83;13.90;;;;;;;;;;5007689;28;100452;-72
2021/12/13 00:32:35;;;;;;;23.73;13.60;;;;;;;;;;5007190;28;98590;-69
2021/12/13 00:35:05;;;;;;;29.02;14.00;;;;;;;;;;5007172;28;100223;-72
2021/12/13 00:37:39;;;;;;;28.50;14.57;;;;;;;;;;4981720;28;100281;-70
2021/12/13 00:40:20;;;;;;;28.83;15.20;;;;;;;;;;5012704;28;98035;-71
2021/12/13 00:42:53;;;;;;;34.15;16.00;;;;;;;;;;5002741;28;101064;-70
2021/12/13 00:45:21;;;;;;;28.95;15.88;;;;;;;;;;5009128;28;98599;-70
2021/12/13 00:47:48;;;;;;;24.70;15.18;;;;;;;;;;4997699;28;101000;-70
2021/12/13 00:50:19;;;;;;;23.92;13.80;;;;;;;;;;4995091;28;99387;-70
2021/12/13 00:52:47;;;;;;;26.60;15.13;;;;;;;;;;5001210;28;98620;-70
2021/12/13 00:55:15;;;;;;;20.92;14.48;;;;;;;;;;4991649;28;100551;-70
2021/12/13 00:57:46;;;;;;;29.63;14.50;;;;;;;;;;5008757;28;99572;-70
2021/12/13 01:00:18;;;;;;;21.45;14.68;;;;;;;;;;5004506;28;98620;-71
2021/12/13 01:02:44;;;;;;;28.52;14.13;;;;;;;;;;5011738;28;100154;-71
2021/12/13 01:05:16;;;;;;;28.73;14.55;;;;;;;;;;5004813;28;97816;-71
2021/12/13 01:07:57;;;;;;;25.10;14.27;;;;;;;;;;5009236;28;99338;-71
2021/12/13 01:10:39;;;;;;;25.02;13.30;;;;;;;;;;5003325;28;100280;-71
2021/12/13 01:13:07;;;;;;;23.15;12.68;;;;;;;;;;5004545;28;99328;-71
2021/12/13 01:15:43;;;;;;;26.65;13.80;;;;;;;;;;5002652;28;100767;-71
2021/12/13 01:18:32;;;;;;;26.92;13.63;;;;;;;;;;5006298;28;100156;-71
2021/12/13 01:21:14;;;;;;;25.42;13.95;;;;;;;;;;5001916;28;99112;-71
2021/12/13 01:23:48;;;;;;;22.60;14.05;;;;;;;;;;5006028;28;99866;-71
2021/12/13 01:26:38;;;;;;;17.73;12.43;;;;;;;;;;5005308;28;100530;-71
2021/12/13 01:29:08;;;;;;;21.50;11.38;;;;;;;;;;4989031;28;99169;-71
2021/12/13 01:31:36;;;;;;;25.92;12.13;;;;;;;;;;5008729;28;99576;-71
2021/12/13 01:34:04;;;;;;;22.58;11.60;;;;;;;;;;4998310;28;101640;-71
2021/12/13 01:36:38;;;;;;;15.32;10.65;;;;;;;;;;4998824;28;99201;-71
2021/12/13 01:39:06;;;;;;;14.02;10.57;;;;;;;;;;5005293;28;101008;-71
2021/12/13 01:41:38;;;;;;;17.73;10.50;;;;;;;;;;5008047;28;98544;-71
2021/12/13 01:44:14;;;;;;;18.13;11.30;;;;;;;;;;5000467;28;99165;-71
2021/12/13 01:46:46;;;;;;;14.95;10.25;;;;;;;;;;5004205;28;100694;-71
2021/12/13 01:49:14;;;;;;;19.83;11.13;;;;;;;;;;5004883;28;99270;-71
2021/12/13 01:51:42;;;;;;;31.45;11.73;;;;;;;;;;5007649;28;100633;-71
2021/12/13 01:54:12;;;;;;;19.33;10.50;;;;;;;;;;5005026;28;98755;-71
2021/12/13 01:56:46;;;;;;;16.15;9.75;;;;;;;;;;5002731;28;100148;-70
2021/12/13 02:02:12;;;;;;;13.70;9.82;;;;;;;;;;4982879;28;98705;-72
2021/12/13 02:04:40;;;;;;;21.60;10.80;;;;;;;;;;5005997;28;99579;-71
2021/12/13 02:07:07;;;;;;;18.08;10.32;;;;;;;;;;5010852;28;100493;-71
2021/12/13 02:09:37;;;;;;;16.23;9.75;;;;;;;;;;5012645;28;99051;-72
2021/12/13 02:12:05;;;;;;;19.00;9.90;;;;;;;;;;5007751;28;99664;-72
2021/12/13 02:14:34;;;;;;;13.73;9.55;;;;;;;;;;5009306;28;98582;-71
2021/12/13 02:17:10;;;;;;;15.15;9.48;;;;;;;;;;5009635;28;99177;-71
2021/12/13 02:19:42;;;;;;;21.13;10.07;;;;;;;;;;5006007;28;100274;-71
2021/12/13 02:22:09;;;;;;;14.60;8.95;;;;;;;;;;5008450;28;97842;-71
2021/12/13 02:24:37;;;;;;;21.58;9.95;;;;;;;;;;5004925;28;99675;-71
2021/12/13 02:27:06;;;;;;;12.93;10.07;;;;;;;;;;5006615;28;100293;-70
2021/12/13 02:29:36;;;;;;;13.98;9.80;;;;;;;;;;4988547;28;99630;-70
2021/12/13 02:32:05;;;;;;;22.17;11.35;;;;;;;;;;4992795;28;100118;-71
2021/12/13 02:34:33;;;;;;;16.48;10.50;;;;;;;;;;5003653;28;98672;-71
2021/12/13 02:37:00;;;;;;;16.80;11.52;;;;;;;;;;5013266;28;101068;-71
2021/12/13 02:39:29;;;;;;;17.77;11.60;;;;;;;;;;5003454;28;100199;-71
2021/12/13 02:41:56;;;;;;;20.48;11.73;;;;;;;;;;5015314;28;98553;-71
2021/12/13 02:44:28;;;;;;;19.63;12.35;;;;;;;;;;5011591;28;100479;-71
2021/12/13 02:46:57;;;;;;;22.37;12.90;;;;;;;;;;4976304;28;99515;-71
2021/12/13 02:49:23;;;;;;;21.98;13.32;;;;;;;;;;4974034;28;98630;-71
2021/12/13 02:51:55;;;;;;;27.13;13.38;;;;;;;;;;4992108;28;99352;-71
2021/12/13 02:54:35;;;;;;;28.02;13.77;;;;;;;;;;4975836;28;100655;-71
2021/12/13 02:57:02;;;;;;;26.52;13.40;;;;;;;;;;5012720;28;100744;-70
2021/12/13 02:59:29;;;;;;;18.98;13.45;;;;;;;;;;5011324;28;99694;-70
2021/12/13 03:02:03;;;;;;;23.38;14.98;;;;;;;;;;5013389;28;98750;-71
2021/12/13 03:04:30;;;;;;;22.83;15.60;;;;;;;;;;5010671;28;100180;-70
2021/12/13 03:06:58;;;;;;;20.92;14.95;;;;;;;;;;5012193;28;100489;-71
2021/12/13 03:09:26;;;;;;;22.17;15.65;;;;;;;;;;4989006;28;99503;-71
2021/12/13 03:11:53;;;;;;;23.33;15.43;;;;;;;;;;5013352;28;99336;-71
2021/12/13 03:14:22;;;;;;;28.60;16.98;;;;;;;;;;5010186;28;99995;-71
2021/12/13 03:17:09;;;;;;;28.98;17.88;;;;;;;;;;4976636;28;98570;-70
2021/12/13 03:19:46;;;;;;;24.92;17.13;;;;;;;;;;4973505;28;100295;-71
2021/12/13 03:22:21;;;;;;;29.75;18.35;;;;;;;;;;4976292;28;98574;-71
2021/12/13 03:24:57;;;;;;;27.98;19.90;;;;;;;;;;5012074;28;100099;-71
2021/12/13 03:27:42;;;;;;;34.28;19.98;;;;;;;;;;4978887;28;100002;-71
2021/12/13 03:30:15;;;;;;;28.30;19.52;;;;;;;;;;5013459;28;98693;-71
2021/12/13 03:32:53;;;;;;;30.53;21.40;;;;;;;;;;5011450;28;98582;-71
2021/12/13 03:35:40;;;;;;;29.77;21.83;;;;;;;;;;5004895;28;99317;-71
2021/12/13 03:38:08;;;;;;;33.00;20.90;;;;;;;;;;5012109;28;98430;-71
2021/12/13 03:40:35;;;;;;;31.52;21.50;;;;;;;;;;5016497;28;99318;-71
2021/12/13 03:43:08;;;;;;;30.15;20.05;;;;;;;;;;5005322;28;98624;-71
2021/12/13 03:45:39;;;;;;;27.95;22.05;;;;;;;;;;5010955;28;100011;-71
2021/12/13 03:48:07;;;;;;;33.28;22.00;;;;;;;;;;5008189;28;100458;-71
2021/12/13 03:50:41;;;;;;;32.28;22.65;;;;;;;;;;5008431;28;98814;-71
2021/12/13 03:53:11;;;;;;;29.27;21.20;;;;;;;;;;5008083;28;100320;-71
2021/12/13 03:55:39;;;;;;;29.75;21.58;;;;;;;;;;5007895;28;100647;-71
2021/12/13 03:58:08;;;;;;;28.45;22.33;;;;;;;;;;5007328;28;99220;-71
2021/12/13 04:00:44;;;;;;;29.33;21.05;;;;;;;;;;4986424;28;100511;-71
2021/12/13 04:03:11;;;;;;;28.48;22.52;;;;;;;;;;4977744;28;98252;-71
2021/12/13 04:05:38;;;;;;;28.60;20.75;;;;;;;;;;5007710;28;99327;-71
2021/12/13 04:08:06;;;;;;;31.70;22.70;;;;;;;;;;5007702;28;100082;-71
2021/12/13 04:10:36;;;;;;;33.55;24.02;;;;;;;;;;5007529;28;99863;-71
2021/12/13 04:13:09;;;;;;;31.25;24.33;;;;;;;;;;5004170;28;100418;-71
2021/12/13 04:15:54;;;;;;;33.55;24.50;;;;;;;;;;5009192;28;102028;-71
2021/12/13 04:19:06;;;;;;;31.63;23.02;;;;;;;;;;4976826;28;98659;-71
2021/12/13 04:21:14;;;;;;;30.23;22.45;;;;;;;;;;5009418;28;99748;-71
2021/12/13 04:23:48;;;;;;;33.00;23.13;;;;;;;;;;5010302;28;100149;-71
2021/12/13 04:26:14;;;;;;;36.97;23.42;;;;;;;;;;5005889;28;100002;-71
2021/12/13 04:28:45;;;;;;;29.25;22.35;;;;;;;;;;4994725;28;100013;-71
2021/12/13 04:31:15;;;;;;;29.48;21.65;;;;;;;;;;5001041;28;99577;-72
2021/12/13 04:33:44;;;;;;;33.53;22.17;;;;;;;;;;4989554;28;102006;-72
2021/12/13 04:36:12;;;;;;;25.83;21.20;;;;;;;;;;5004562;28;100932;-72
2021/12/13 04:38:48;;;;;;;24.45;20.13;;;;;;;;;;4994586;28;99418;-72
2021/12/13 04:41:22;;;;;;;26.88;20.95;;;;;;;;;;5009250;28;100071;-72
2021/12/13 04:43:48;;;;;;;27.10;21.58;;;;;;;;;;5006980;28;99632;-72
2021/12/13 04:46:17;;;;;;;26.70;21.75;;;;;;;;;;5012067;28;98619;-72
2021/12/13 04:48:45;;;;;;;35.28;21.17;;;;;;;;;;5007138;28;99540;-72
2021/12/13 04:51:15;;;;;;;21.08;18.83;;;;;;;;;;4998119;28;98575;-72
2021/12/13 04:53:44;;;;;;;31.40;20.05;;;;;;;;;;4996282;27;99228;-72
2021/12/13 04:56:13;;;;;;;22.73;19.67;;;;;;;;;;5008963;28;100296;-72
2021/12/13 04:58:40;;;;;;;25.20;19.60;;;;;;;;;;5005416;28;98601;-72
2021/12/13 05:01:08;;;;;;;24.33;18.85;;;;;;;;;;5004456;28;100032;-72
2021/12/13 05:03:38;;;;;;;20.75;18.70;;;;;;;;;;4996677;28;100170;-72
2021/12/13 05:06:07;;;;;;;28.35;18.77;;;;;;;;;;4989206;28;98528;-71
2021/12/13 05:08:33;;;;;;;22.75;18.05;;;;;;;;;;4985198;28;100045;-71
2021/12/13 05:11:03;;;;;;;26.23;17.50;;;;;;;;;;4981053;28;99052;-71
2021/12/13 05:13:30;;;;;;;22.20;18.17;;;;;;;;;;5007367;28;99200;-71
2021/12/13 05:15:58;;;;;;;25.83;17.08;;;;;;;;;;5005887;28;100245;-71
2021/12/13 05:18:27;;;;;;;26.90;17.17;;;;;;;;;;5009194;28;98247;-71
2021/12/13 05:20:58;;;;;;;21.92;18.30;;;;;;;;;;5006780;28;99420;-71
2021/12/13 05:23:25;;;;;;;22.45;18.48;;;;;;;;;;5004234;28;99955;-71
2021/12/13 05:25:56;;;;;;;26.75;19.38;;;;;;;;;;4984742;28;99434;-71
2021/12/13 05:28:24;;;;;;;22.35;18.00;;;;;;;;;;5003662;28;99829;-71
2021/12/13 05:30:56;;;;;;;21.33;18.80;;;;;;;;;;5007098;28;99318;-71
2021/12/13 05:33:24;;;;;;;21.58;18.55;;;;;;;;;;5008342;28;100242;-72
2021/12/13 05:35:52;;;;;;;19.50;17.58;;;;;;;;;;5002282;28;99649;-72
2021/12/13 05:38:22;;;;;;;23.35;18.77;;;;;;;;;;5008128;28;98634;-71
2021/12/13 05:40:49;;;;;;;19.05;17.15;;;;;;;;;;4998447;28;100018;-71
2021/12/13 05:43:18;;;;;;;20.67;16.55;;;;;;;;;;4995985;28;99558;-72
2021/12/13 05:45:48;;;;;;;19.77;16.42;;;;;;;;;;5003362;28;98599;-72
2021/12/13 05:48:20;;;;;;;24.92;17.60;;;;;;;;;;5008631;28;99362;-72
2021/12/13 05:50:54;;;;;;;20.73;16.45;;;;;;;;;;5003635;28;102302;-71
2021/12/13 05:53:22;;;;;;;23.30;16.88;;;;;;;;;;5011336;28;98575;-71
2021/12/13 05:55:53;;;;;;;23.95;18.02;;;;;;;;;;5004267;28;100180;-71
2021/12/13 05:58:29;;;;;;;23.42;17.17;;;;;;;;;;4989564;28;98869;-72
2021/12/13 06:00:56;;;;;;;22.70;17.15;;;;;;;;;;4969215;28;100108;-72
2021/12/13 06:03:33;;;;;;;25.40;17.35;;;;;;;;;;5001116;28;100363;-72
2021/12/13 06:06:10;;;;;;;21.02;17.70;;;;;;;;;;5004974;28;98596;-71
2021/12/13 06:08:45;;;;;;;19.95;17.65;;;;;;;;;;5008716;28;100171;-71
2021/12/13 06:11:15;;;;;;;19.90;15.73;;;;;;;;;;5004181;28;100351;-71
2021/12/13 06:13:42;;;;;;;21.80;16.92;;;;;;;;;;5011248;28;98589;-72
2021/12/13 06:16:09;;;;;;;18.58;16.65;;;;;;;;;;5000177;28;100650;-72
2021/12/13 06:18:40;;;;;;;21.58;17.17;;;;;;;;;;5006387;28;98869;-72
2021/12/13 06:21:20;;;;;;;21.55;17.13;;;;;;;;;;5005722;28;99308;-72
2021/12/13 06:23:47;;;;;;;21.75;14.95;;;;;;;;;;5007650;28;100535;-72
2021/12/13 06:26:14;;;;;;;23.00;17.38;;;;;;;;;;5005159;28;98594;-72
2021/12/13 06:29:00;;;;;;;26.02;18.55;;;;;;;;;;5006395;28;99273;-72
2021/12/13 06:31:41;;;;;;;19.13;16.08;;;;;;;;;;4967177;28;100132;-72
2021/12/13 06:34:09;;;;;;;23.48;17.55;;;;;;;;;;4973436;28;97980;-72
2021/12/13 06:36:41;;;;;;;28.38;18.25;;;;;;;;;;5008248;28;100242;-72
2021/12/13 06:39:10;;;;;;;22.65;17.75;;;;;;;;;;5004906;28;99480;-72
2021/12/13 06:41:44;;;;;;;22.92;17.63;;;;;;;;;;5007304;28;100310;-71
2021/12/13 06:44:11;;;;;;;24.52;18.60;;;;;;;;;;5000623;28;100545;-71
2021/12/13 06:46:40;;;;;;;20.92;17.58;;;;;;;;;;4995029;28;98643;-71
2021/12/13 06:49:09;;;;;;;24.13;19.30;;;;;;;;;;4999514;28;98895;-70
2021/12/13 06:51:51;;;;;;;22.58;17.02;;;;;;;;;;4972678;28;100209;-72
2021/12/13 06:54:39;;;;;;;25.10;18.80;;;;;;;;;;4986868;28;103431;-70
2021/12/13 06:57:06;;;;;;;23.85;18.70;;;;;;;;;;4985979;28;100060;-71
2021/12/13 06:59:33;;;;;;;24.77;17.83;;;;;;;;;;4982857;28;98960;-70
2021/12/13 07:02:06;;;;;;;26.55;17.95;;;;;;;;;;4988148;28;98639;-70
2021/12/13 07:04:37;;;;;;;31.35;19.17;;;;;;;;;;4987091;28;100019;-71
2021/12/13 07:07:09;;;;;;;24.40;17.00;;;;;;;;;;4978877;28;100814;-70
2021/12/13 07:09:36;;;;;;;22.30;17.35;;;;;;;;;;4984959;28;100838;-71
2021/12/13 07:12:10;;;;;;;22.73;17.50;;;;;;;;;;4978919;28;100550;-71
2021/12/13 07:14:38;;;;;;;26.85;18.02;;;;;;;;;;4986506;28;98873;-71
2021/12/13 07:17:15;;;;;;;23.40;17.65;;;;;;;;;;4971059;28;100008;-71
2021/12/13 07:19:44;;;;;;;22.65;17.05;;;;;;;;;;4967313;28;99460;-71
2021/12/13 07:22:15;;;;;;;22.52;17.13;;;;;;;;;;4980562;28;98829;-71
2021/12/13 07:24:44;;;;;;;23.95;17.40;;;;;;;;;;4986126;28;99556;-72
2021/12/13 07:27:15;;;;;;;26.73;17.08;;;;;;;;;;4981505;28;98562;-71
2021/12/13 07:29:44;;;;;;;25.65;17.88;;;;;;;;;;4981346;28;99820;-72
2021/12/13 07:32:23;;;;;;;15.70;12.95;;;;;;;;;;4987362;28;101219;-69
2021/12/13 07:34:56;;;;;;;26.45;17.75;;;;;;;;;;4985192;28;98616;-71
2021/12/13 07:37:41;;;;;;;25.92;17.92;;;;;;;;;;5004755;28;100539;-71
2021/12/13 07:40:15;;;;;;;28.67;17.63;;;;;;;;;;5009966;28;100442;-71
2021/12/13 07:43:13;;;;;;;41.80;18.08;;;;;;;;;;5009634;28;98606;-72
2021/12/13 07:45:48;;;;;;;26.52;17.23;;;;;;;;;;4996757;28;100398;-72
2021/12/13 07:48:35;;;;;;;24.85;17.67;;;;;;;;;;5010120;28;98669;-72
2021/12/13 07:51:05;;;;;;;25.05;17.95;;;;;;;;;;5003930;28;100148;-72
2021/12/13 07:53:41;;;;;;;26.98;17.63;;;;;;;;;;4989631;28;100605;-72
2021/12/13 07:56:09;;;;;;;31.65;18.88;;;;;;;;;;4989721;28;98586;-72
2021/12/13 07:58:46;;;;;;;30.08;18.38;;;;;;;;;;4990165;28;100470;-72
2021/12/13 08:01:22;;;;;;;26.27;18.40;;;;;;;;;;4983944;28;100474;-72
2021/12/13 08:03:59;;;;;;;31.13;19.45;;;;;;;;;;4989412;28;98583;-72
2021/12/13 08:06:32;;;;;;;26.27;19.58;;;;;;;;;;4998979;28;100355;-72
2021/12/13 08:09:00;;;;;;;30.42;20.88;;;;;;;;;;5009687;28;99029;-72
2021/12/13 08:11:38;;;;;;;29.70;20.77;;;;;;;;;;5009075;28;98976;-73
2021/12/13 08:14:05;;;;;;;28.00;19.63;;;;;;;;;;5009595;28;99265;-72
2021/12/13 08:16:46;;;;;;;26.70;19.85;;;;;;;;;;5010176;28;98646;-72
2021/12/13 08:19:15;;;;;;;34.83;22.45;;;;;;;;;;5009077;28;99730;-72
2021/12/13 08:21:44;;;;;;;38.97;24.15;;;;;;;;;;4998498;28;99469;-73
2021/12/13 08:24:19;;;;;;;32.65;21.70;;;;;;;;;;4988652;28;99353;-73
2021/12/13 08:26:46;;;;;;;31.13;21.83;;;;;;;;;;4989946;28;100261;-72
2021/12/13 08:29:25;;;;;;;33.50;23.42;;;;;;;;;;4995435;28;100292;-73
2021/12/13 08:31:53;;;;;;;33.40;22.25;;;;;;;;;;4989261;28;99883;-73
2021/12/13 08:34:24;;;;;;;28.52;21.63;;;;;;;;;;4988484;28;100153;-73
2021/12/13 08:36:52;;;;;;;29.63;21.52;;;;;;;;;;4989939;28;100067;-73
2021/12/13 08:39:25;;;;;;;35.78;22.33;;;;;;;;;;4988222;28;99185;-73
2021/12/13 08:41:51;;;;;;;;;;;;;;;;;;4989727;28;98726;-73
2021/12/13 08:44:20;;;;;;;31.48;22.02;;;;;;;;;;4990287;28;120409;-73
2021/12/13 08:46:56;;;;;;;33.45;20.77;;;;;;;;;;4989114;28;98951;-73
2021/12/13 08:49:22;;;;;;;30.08;22.02;;;;;;;;;;4988288;28;101618;-73
2021/12/13 08:51:57;;;;;;;32.78;21.65;;;;;;;;;;5008476;28;100501;-73
2021/12/13 08:54:35;;;;;;;34.40;22.98;;;;;;;;;;5008249;28;100166;-73
2021/12/13 08:57:04;;;;;;;30.38;20.50;;;;;;;;;;4992244;28;98628;-73
2021/12/13 08:59:30;;;;;;;31.83;21.80;;;;;;;;;;4969801;28;99095;-73
2021/12/13 09:02:14;;;;;;;27.90;19.65;;;;;;;;;;4988776;28;100314;-73
2021/12/13 09:04:48;;;;;;;25.83;19.27;;;;;;;;;;4969234;28;99113;-73
2021/12/13 09:07:19;;;;;;;25.38;19.08;;;;;;;;;;4968788;28;99963;-73
2021/12/13 09:09:46;;;;;;;29.38;19.30;;;;;;;;;;4968911;28;100631;-73
2021/12/13 09:12:14;;;;;;;31.65;20.17;;;;;;;;;;4969211;28;98632;-73
2021/12/13 09:14:50;;;;;;;24.70;19.33;;;;;;;;;;4973135;28;100148;-73
2021/12/13 09:17:21;;;;;;;28.35;19.73;;;;;;;;;;4972702;28;98996;-73
2021/12/13 09:19:51;;;;;;;31.52;20.00;;;;;;;;;;4988627;28;100143;-73
2021/12/13 09:22:26;;;;;;;29.40;19.60;;;;;;;;;;4987726;28;100229;-73
2021/12/13 09:24:57;;;;;;;23.98;17.95;;;;;;;;;;4990713;28;98610;-73
2021/12/13 09:27:32;;;;;;;25.10;18.98;;;;;;;;;;4987707;28;100064;-73
2021/12/13 09:30:01;;;;;;;27.08;19.00;;;;;;;;;;4988219;28;101440;-73
2021/12/13 09:32:39;;;;;;;27.10;17.58;;;;;;;;;;4981366;28;99002;-73
2021/12/13 09:35:37;;;;;;;26.33;19.00;;;;;;;;;;4967953;28;99824;-73
2021/12/13 09:38:19;;;;;;;28.98;19.80;;;;;;;;;;4966113;28;100216;-73
2021/12/13 09:40:54;;;;;;;28.50;18.65;;;;;;;;;;4988277;28;99766;-72
2021/12/13 09:43:21;;;;;;;27.20;18.67;;;;;;;;;;4987167;28;99660;-72
2021/12/13 09:45:53;;;;;;;25.73;18.38;;;;;;;;;;4987347;28;98721;-72
2021/12/13 09:48:26;;;;;;;28.90;18.95;;;;;;;;;;5003146;28;100049;-72
2021/12/13 09:50:56;;;;;;;23.02;17.80;;;;;;;;;;5008361;28;99446;-72
2021/12/13 09:53:31;;;;;;;27.15;19.30;;;;;;;;;;5009163;28;98603;-73
2021/12/13 09:55:59;;;;;;;26.17;17.95;;;;;;;;;;5007440;28;100057;-72
2021/12/13 09:58:32;;;;;;;25.98;17.10;;;;;;;;;;5008075;28;98464;-72
2021/12/13 10:01:05;;;;;;;26.52;19.08;;;;;;;;;;4997344;28;99350;-72
2021/12/13 10:03:41;;;;;;;27.92;16.60;;;;;;;;;;4967432;28;100333;-72
2021/12/13 10:06:08;;;;;;;32.55;17.23;;;;;;;;;;4967858;28;99764;-73
2021/12/13 10:08:46;;;;;;;27.88;16.95;;;;;;;;;;4967559;28;100048;-72
2021/12/13 10:11:16;;;;;;;22.70;17.10;;;;;;;;;;4966906;28;99250;-73
2021/12/13 10:13:42;;;;;;;21.98;17.98;;;;;;;;;;4967901;28;98626;-73
2021/12/13 10:16:12;;;;;;;26.27;17.92;;;;;;;;;;4987386;28;99084;-73
2021/12/13 10:18:40;;;;;;;23.58;17.15;;;;;;;;;;5006193;28;100234;-74
2021/12/13 10:21:10;;;;;;;28.95;17.58;;;;;;;;;;5011061;28;98648;-73
2021/12/13 10:23:39;;;;;;;19.92;14.80;;;;;;;;;;5005762;28;101887;-73
2021/12/13 10:26:25;;;;;;;21.45;16.30;;;;;;;;;;4987668;28;98536;-73
2021/12/13 10:28:55;;;;;;;21.00;15.82;;;;;;;;;;4991046;28;99742;-73
2021/12/13 10:31:25;;;;;;;20.20;16.30;;;;;;;;;;4986175;28;101312;-73
2021/12/13 10:33:52;;;;;;;24.35;17.35;;;;;;;;;;4987762;28;98589;-73
2021/12/13 10:36:19;;;;;;;21.05;14.98;;;;;;;;;;4987466;28;100213;-73
2021/12/13 10:38:48;;;;;;;22.23;15.10;;;;;;;;;;4990377;28;100625;-73
2021/12/13 10:41:27;;;;;;;21.60;14.32;;;;;;;;;;4998725;28;98584;-73
2021/12/13 10:43:56;;;;;;;19.73;14.95;;;;;;;;;;4990733;28;100073;-73
2021/12/13 10:46:30;;;;;;;18.95;14.25;;;;;;;;;;4986283;28;98632;-73
2021/12/13 10:48:59;;;;;;;20.05;14.07;;;;;;;;;;4988452;28;100683;-73
2021/12/13 10:51:36;;;;;;;18.67;13.40;;;;;;;;;;5006932;28;100587;-73
2021/12/13 10:54:10;;;;;;;25.30;15.07;;;;;;;;;;5009811;28;99029;-73
2021/12/13 10:56:40;;;;;;;21.20;13.40;;;;;;;;;;4994304;28;100111;-73
2021/12/13 10:59:08;;;;;;;18.98;13.07;;;;;;;;;;4970379;28;99472;-73
2021/12/13 11:01:37;;;;;;;22.45;14.18;;;;;;;;;;4972186;28;98622;-73
2021/12/13 11:04:06;;;;;;;19.20;13.55;;;;;;;;;;4989710;28;100349;-73
2021/12/13 11:06:35;;;;;;;17.92;13.93;;;;;;;;;;4992997;28;100131;-73
2021/12/13 11:09:04;;;;;;;16.55;13.35;;;;;;;;;;4991086;28;99951;-73
2021/12/13 11:11:33;;;;;;;19.13;12.85;;;;;;;;;;4978096;28;99894;-73
2021/12/13 11:14:03;;;;;;;18.45;12.70;;;;;;;;;;5005292;28;98595;-73
2021/12/13 11:16:36;;;;;;;17.20;12.80;;;;;;;;;;5009996;28;98718;-73
2021/12/13 11:19:04;;;;;;;19.13;13.15;;;;;;;;;;5010093;28;99296;-73
2021/12/13 11:21:34;;;;;;;22.83;12.52;;;;;;;;;;5009037;28;100192;-73
2021/12/13 11:24:02;;;;;;;19.63;14.52;;;;;;;;;;5010396;28;101013;-73
2021/12/13 11:26:31;;;;;;;18.65;12.68;;;;;;;;;;5009472;28;100000;-73
2021/12/13 11:28:58;;;;;;;16.33;12.77;;;;;;;;;;4995657;28;98568;-73
2021/12/13 11:31:31;;;;;;;16.17;13.43;;;;;;;;;;4992709;28;100204;-73
2021/12/13 11:34:04;;;;;;;13.98;11.45;;;;;;;;;;4989133;28;98578;-73
2021/12/13 11:36:49;;;;;;;17.33;11.15;;;;;;;;;;4990211;28;101141;-73
2021/12/13 11:39:34;;;;;;;14.95;11.57;;;;;;;;;;4990195;28;99849;-73
2021/12/13 11:42:24;;;;;;;16.38;11.75;;;;;;;;;;4995183;28;98921;-73
2021/12/13 11:45:05;;;;;;;14.73;11.55;;;;;;;;;;5010392;28;99347;-73
2021/12/13 11:47:40;;;;;;;19.55;11.20;;;;;;;;;;5008615;28;100859;-73
2021/12/13 11:50:13;;;;;;;20.98;11.43;;;;;;;;;;5009533;28;99192;-73
2021/12/13 11:52:39;;;;;;;17.73;11.88;;;;;;;;;;5013164;28;99328;-73
2021/12/13 11:55:24;;;;;;;23.08;11.60;;;;;;;;;;5010868;28;98640;-73
2021/12/13 11:58:10;;;;;;;15.38;11.18;;;;;;;;;;4998206;28;100266;-74
2021/12/13 12:00:54;;;;;;;19.02;10.95;;;;;;;;;;4989118;28;99707;-73
2021/12/13 12:03:21;;;;;;;16.27;10.48;;;;;;;;;;4989061;28;99244;-73
2021/12/13 12:05:47;;;;;;;14.68;11.30;;;;;;;;;;4993291;28;98041;-73
2021/12/13 12:08:32;;;;;;;13.93;10.35;;;;;;;;;;4990060;28;99289;-73
2021/12/13 12:11:17;;;;;;;14.02;9.93;;;;;;;;;;4990312;28;98867;-73
2021/12/13 12:14:01;;;;;;;13.52;10.07;;;;;;;;;;5008194;28;100214;-73
2021/12/13 12:16:28;;;;;;;15.52;10.05;;;;;;;;;;5011757;28;99362;-73
2021/12/13 12:18:56;;;;;;;16.80;9.82;;;;;;;;;;5009075;28;99992;-73
2021/12/13 12:21:25;;;;;;;11.20;9.20;;;;;;;;;;5009620;28;100249;-73
2021/12/13 12:23:52;;;;;;;13.00;9.90;;;;;;;;;;5009468;28;99438;-74
2021/12/13 12:26:19;;;;;;;15.15;9.98;;;;;;;;;;5009966;28;99845;-73
2021/12/13 12:28:46;;;;;;;12.32;9.65;;;;;;;;;;4996230;28;100427;-73
2021/12/13 12:31:13;;;;;;;14.68;10.15;;;;;;;;;;4993337;28;97860;-73
2021/12/13 12:33:40;;;;;;;11.70;8.82;;;;;;;;;;5006508;28;98747;-74
2021/12/13 12:36:20;;;;;;;12.40;10.27;;;;;;;;;;4993437;28;99430;-74
2021/12/13 12:39:01;;;;;;;16.05;9.60;;;;;;;;;;4988489;28;99802;-74
2021/12/13 12:41:46;;;;;;;14.68;9.43;;;;;;;;;;4990465;28;98918;-74
2021/12/13 12:44:40;;;;;;;12.05;9.30;;;;;;;;;;4989285;28;98812;-73
2021/12/13 12:47:07;;;;;;;16.23;10.32;;;;;;;;;;5003604;28;99075;-74
2021/12/13 12:49:33;;;;;;;14.27;9.48;;;;;;;;;;5008766;28;100173;-73
2021/12/13 12:52:06;;;;;;;11.32;9.05;;;;;;;;;;5009564;28;98535;-73
2021/12/13 12:54:33;;;;;;;17.40;9.68;;;;;;;;;;5009358;28;99479;-73
2021/12/13 12:57:00;;;;;;;14.50;9.70;;;;;;;;;;5010162;28;98709;-74
2021/12/13 12:59:28;;;;;;;16.83;8.88;;;;;;;;;;5012598;28;98967;-73
2021/12/13 13:01:59;;;;;;;13.68;7.47;;;;;;;;;;4993247;28;99393;-75
2021/12/13 13:04:30;;;;;;;11.65;8.65;;;;;;;;;;4989123;28;99377;-74
2021/12/13 13:07:05;;;;;;;10.52;8.80;;;;;;;;;;4989294;28;101135;-74
2021/12/13 13:09:33;;;;;;;13.02;9.07;;;;;;;;;;4989244;28;99585;-74
2021/12/13 13:12:00;;;;;;;15.98;9.07;;;;;;;;;;4984286;27;100244;-73
2021/12/13 13:14:30;;;;;;;9.75;8.65;;;;;;;;;;4989124;28;100396;-75
2021/12/13 13:16:58;;;;;;;13.98;8.52;;;;;;;;;;4990444;28;100806;-74
2021/12/13 13:19:27;;;;;;;12.73;9.50;;;;;;;;;;4988700;28;98638;-73
2021/12/13 13:21:55;;;;;;;15.10;9.25;;;;;;;;;;4992954;28;100590;-74
2021/12/13 13:24:21;;;;;;;14.85;8.90;;;;;;;;;;4989308;28;99504;-73
2021/12/13 13:26:48;;;;;;;14.32;8.40;;;;;;;;;;4988819;28;99949;-74
2021/12/13 13:29:17;;;;;;;11.30;8.70;;;;;;;;;;4987962;28;100280;-74
2021/12/13 13:31:44;;;;;;;10.88;8.52;;;;;;;;;;4989129;28;98648;-74
2021/12/13 13:34:25;;;;;;;15.00;9.38;;;;;;;;;;4988604;28;100698;-74
2021/12/13 13:37:21;;;;;;;9.95;8.85;;;;;;;;;;4988792;28;99733;-74
2021/12/13 13:39:49;;;;;;;9.68;8.50;;;;;;;;;;4986826;28;98682;-74
2021/12/13 13:42:21;;;;;;;11.27;7.38;;;;;;;;;;4988154;28;100523;-74
2021/12/13 13:44:52;;;;;;;14.13;9.20;;;;;;;;;;4991610;28;100422;-74
2021/12/13 13:47:24;;;;;;;12.93;8.35;;;;;;;;;;4989631;28;99364;-73
2021/12/13 13:49:50;;;;;;;12.63;8.85;;;;;;;;;;4990559;28;99988;-74
2021/12/13 13:52:21;;;;;;;13.88;8.40;;;;;;;;;;4988534;28;99123;-74
2021/12/13 13:54:49;;;;;;;10.90;8.35;;;;;;;;;;4990541;28;99870;-74
2021/12/13 13:57:24;;;;;;;8.73;7.32;;;;;;;;;;4988397;28;100696;-74
2021/12/13 13:59:51;;;;;;;9.82;8.85;;;;;;;;;;4988599;28;98803;-74
2021/12/13 14:02:19;;;;;;;15.98;9.35;;;;;;;;;;4987966;28;99027;-74
2021/12/13 14:04:50;;;;;;;9.43;8.18;;;;;;;;;;4988330;28;100372;-74
2021/12/13 14:07:19;;;;;;;8.80;7.95;;;;;;;;;;4991974;28;98757;-74
2021/12/13 14:09:47;;;;;;;12.27;8.85;;;;;;;;;;4987540;28;100407;-74
2021/12/13 14:12:34;;;;;;;10.95;8.88;;;;;;;;;;4989668;28;97843;-74
2021/12/13 14:15:04;;;;;;;9.50;8.48;;;;;;;;;;4988024;28;99907;-74
2021/12/13 14:17:32;;;;;;;12.80;9.48;;;;;;;;;;4987054;28;100287;-74
2021/12/13 14:20:04;;;;;;;11.82;8.73;;;;;;;;;;4987980;28;100223;-74
2021/12/13 14:22:31;;;;;;;10.10;8.20;;;;;;;;;;4988418;28;100777;-73
2021/12/13 14:24:58;;;;;;;9.25;8.07;;;;;;;;;;4989438;28;99927;-73
2021/12/13 14:27:26;;;;;;;10.57;7.88;;;;;;;;;;5006868;28;98552;-72
2021/12/13 14:30:05;;;;;;;10.43;8.45;;;;;;;;;;5009422;28;99912;-74
2021/12/13 14:32:32;;;;;;;13.93;7.72;;;;;;;;;;4988006;28;100055;-74
2021/12/13 14:35:10;;;;;;;15.27;9.07;;;;;;;;;;4976947;28;100377;-73
2021/12/13 14:37:36;;;;;;;13.48;8.77;;;;;;;;;;4986604;27;100757;-73
2021/12/13 14:40:03;;;;;;;10.25;8.43;;;;;;;;;;4972828;28;99090;-73
2021/12/13 14:42:30;;;;;;;11.95;8.75;;;;;;;;;;4987458;28;99895;-72
2021/12/13 14:44:58;;;;;;;10.70;8.23;;;;;;;;;;4988681;28;102700;-72
2021/12/13 14:47:37;;;;;;;12.18;8.68;;;;;;;;;;4987767;28;100092;-72